WetterOnline ( https://www.wetteronline.de )

Wetter aktuell Ahaus

Aktuelles Wetter: Ahaus (46m)

6-stündlich | Neueste Meldungen
Ortszeit Temperatur Wetter
Mo, 15.04. 8:00 8.1° C wolkig
Mo, 15.04. 2:00 8.7° C leichter Regen
So, 14.04. 20:00 12.2° C bedeckt
So, 14.04. 14:00 13.8° C wolkig
So, 14.04. 8:00 10.7° C bewölkt
So, 14.04. 2:00 15.0° C wolkig
Sa, 13.04. 20:00 21.4° C bedeckt
Sa, 13.04. 14:00 20.9° C wolkig
Ortszeit Temperatur Wetter
Mo, 15.04. 13:10 11.7° C bedeckt
Mo, 15.04. 13:00 12.1° C bewölkt
Mo, 15.04. 12:50 12.1° C bewölkt
Mo, 15.04. 12:40 11.8° C bedeckt
Mo, 15.04. 12:30 11.8° C bewölkt
Mo, 15.04. 12:20 11.8° C bewölkt
Mo, 15.04. 12:00 11.4° C bewölkt
Mo, 15.04. 11:30 10.4° C bewölkt
Mo, 15.04. 11:00 10.2° C bewölkt
Mo, 15.04. 10:30 10.2° C wolkig
Ortszeit Relative Feuchte Sichtweite
Mo, 15.04. 8:00 85% 24 km
Mo, 15.04. 2:00 82% 21 km
So, 14.04. 20:00 58% 60 km
So, 14.04. 14:00 49% 45 km
So, 14.04. 8:00 81% 40 km
So, 14.04. 2:00 63% 55 km
Sa, 13.04. 20:00 60% 50 km
Sa, 13.04. 14:00 65% 30 km
Ortszeit Relative Feuchte Sichtweite
Mo, 15.04. 13:10 56% -
Mo, 15.04. 13:00 62% 65 km
Mo, 15.04. 12:50 62% -
Mo, 15.04. 12:40 62% -
Mo, 15.04. 12:30 60% 40 km
Mo, 15.04. 12:20 60% -
Mo, 15.04. 12:00 65% 45 km
Mo, 15.04. 11:30 65% 45 km
Mo, 15.04. 11:00 69% 55 km
Mo, 15.04. 10:30 72% 35 km
Ortszeit Niederschlagsmenge Niederschlagsart
Mo, 15.04. 8:00 0.3 l/m2 in 12 Std. Regen
Mo, 15.04. 2:00 0.2 l/m2 in 6 Std. Regen
So, 14.04. 20:00 0.0 l/m2 in 12 Std. -
So, 14.04. 14:00 0.0 l/m2 in 6 Std. -
So, 14.04. 8:00 0.0 l/m2 in 12 Std. -
So, 14.04. 2:00 0.0 l/m2 in 6 Std. -
Sa, 13.04. 20:00 0.0 l/m2 in 12 Std. -
Sa, 13.04. 14:00 0.0 l/m2 in 6 Std. -
Ortszeit Niederschlagsmenge Niederschlagsart
Mo, 15.04. 13:10 keine Meldung -
Mo, 15.04. 13:00 0.0 l/m2 in 1 Std. -
Mo, 15.04. 12:50 keine Meldung -
Mo, 15.04. 12:40 keine Meldung -
Mo, 15.04. 12:30 0.0 l/m2 in 30 Min -
Mo, 15.04. 12:20 keine Meldung -
Mo, 15.04. 12:00 0.0 l/m2 in 1 Std. -
Mo, 15.04. 11:30 0.0 l/m2 in 30 Min -
Mo, 15.04. 11:00 0.0 l/m2 in 1 Std. -
Mo, 15.04. 10:30 0.0 l/m2 in 30 Min -
Ortszeit Stärke Spitze Richtung
km/h Bft. km/h Grad Sektor
Mo, 15.04. 8:00 18 3 25 210° SW
Mo, 15.04. 2:00 6 1 17 130° SO
So, 14.04. 20:00 11 2 32 320° NW
So, 14.04. 14:00 20 4 31 290° W
So, 14.04. 8:00 4 1 25 290° W
So, 14.04. 2:00 15 3 43 270° W
Sa, 13.04. 20:00 11 2 43 220° SW
Sa, 13.04. 14:00 18 3 36 210° SW
Ortszeit Stärke Spitze Richtung
km/h Bft. km/h Grad Sektor
Mo, 15.04. 13:10 32 5 - 210° SW
Mo, 15.04. 13:00 31 5 50 200° S
Mo, 15.04. 12:50 31 5 - 200° S
Mo, 15.04. 12:40 28 4 - 210° SW
Mo, 15.04. 12:30 29 5 50 210° SW
Mo, 15.04. 12:20 29 5 - 210° SW
Mo, 15.04. 12:00 30 5 43 210° SW
Mo, 15.04. 11:30 26 4 43 220° SW
Mo, 15.04. 11:00 17 3 35 220° SW
Mo, 15.04. 10:30 18 3 36 220° SW
Ortszeit Untergrenze Bedeckung Gattung
total tief tief mittel hoch
Mo, 15.04. 8:00 480 m 7/8 5/8 - - -
Mo, 15.04. 2:00 1260 m 6/8 6/8 - - -
So, 14.04. 20:00 4500 m 8/8 8/8 - - -
So, 14.04. 14:00 1440 m 7/8 5/8 - - -
So, 14.04. 8:00 660 m 8/8 7/8 - - -
So, 14.04. 2:00 7500 m 8/8 0/8 - - -
Sa, 13.04. 20:00 6900 m 8/8 8/8 - - -
Sa, 13.04. 14:00 930 m 6/8 2/8 - - -
Ortszeit Bedeckungsgrad in Achtel und Wolkenuntergrenze
Mo, 15.04. 13:10 8
Mo, 15.04. 13:00 4(1020m) 7(3600m) 8(4200m)
Mo, 15.04. 12:50 4(1020m) 7(3600m) 8(4200m)
Mo, 15.04. 12:40 8
Mo, 15.04. 12:30 5(1020m) 7(1200m) 7(4200m)
Mo, 15.04. 12:20 5(1020m) 7(1200m) 7(4200m)
Mo, 15.04. 12:00 4(930m) 7(1140m) 8(4200m)
Mo, 15.04. 11:30 4(870m) 7(1050m) 8(4200m)
Mo, 15.04. 11:00 4(810m) 8(4200m) 8(4800m)
Mo, 15.04. 10:30 2(690m) 8(4200m) 8(5100m)
Ortszeit Luftdruck NN (hPa) Tendenz (hPa in 3 Std.)
Mo, 15.04. 8:00 1011 - 2,1
Mo, 15.04. 2:00 1016 - 2,0
So, 14.04. 20:00 1020 - 1,5
So, 14.04. 14:00 1023 - 0,1
So, 14.04. 8:00 1022 + 1,5
So, 14.04. 2:00 1019 + 1,2
Sa, 13.04. 20:00 1018 - 2,1
Sa, 13.04. 14:00 1023 - 2,2
Ortszeit Luftdruck NN (hPa) Tendenz (hPa in 3 Std.)
Mo, 15.04. 13:10 1004 keine Meldung
Mo, 15.04. 13:00 1005 - 4,1
Mo, 15.04. 12:50 1005 keine Meldung
Mo, 15.04. 12:40 1005 keine Meldung
Mo, 15.04. 12:30 1006 - 4,0
Mo, 15.04. 12:20 1006 keine Meldung
Mo, 15.04. 12:00 1007 - 3,6
Mo, 15.04. 11:30 1007 - 3,1
Mo, 15.04. 11:00 1008 - 2,8
Mo, 15.04. 10:30 1009 - 2,4
Ortszeit Schneehöhe (cm)
Mo, 15.04. 8:00 0
Mo, 15.04. 2:00 0
So, 14.04. 20:00 0
So, 14.04. 14:00 0
So, 14.04. 8:00 0
So, 14.04. 2:00 0
Sa, 13.04. 20:00 0
Sa, 13.04. 14:00 0
Ortszeit Schneehöhe (cm)
Mo, 15.04. 13:10 -
Mo, 15.04. 13:00 0
Mo, 15.04. 12:50 0
Mo, 15.04. 12:40 -
Mo, 15.04. 12:30 0
Mo, 15.04. 12:20 0
Mo, 15.04. 12:00 0
Mo, 15.04. 11:30 0
Mo, 15.04. 11:00 0
Mo, 15.04. 10:30 0
Link zu dieser Seite / Seite empfehlen

Das Wetter in ...